Time;durP1;ratioP1;P1;durP2;ratioP2;P2;SDS_P1;SDS_P2;PMS_P1;PMS_P2;Temp;Humidity;BMP_temperature;BMP_pressure;BME280_temperature;BME280_humidity;BME280_pressure;Samples;Min_cycle;Max_cycle;Signal;HPM_P1;HPM_P2
2022/09/05 00:02:11;;;;;;;4.03;2.40;;;23.50;60.80;;;;;;5091352;28;20048;-61
2022/09/05 00:04:58;;;;;;;4.40;2.40;;;23.50;60.70;;;;;;5093644;28;20375;-62
2022/09/05 00:07:33;;;;;;;2.92;2.30;;;23.50;60.70;;;;;;5094367;28;20403;-62
2022/09/05 00:10:23;;;;;;;3.50;2.30;;;23.50;60.70;;;;;;5094972;28;20044;-62
2022/09/05 00:12:49;;;;;;;4.10;2.50;;;23.50;60.80;;;;;;5094178;28;20044;-61
2022/09/05 00:15:33;;;;;;;3.58;2.30;;;23.50;60.80;;;;;;5094576;28;20040;-61
2022/09/05 00:18:09;;;;;;;3.35;2.47;;;23.50;60.80;;;;;;5095114;28;20044;-62
2022/09/05 00:20:44;;;;;;;3.20;2.42;;;23.50;60.70;;;;;;5094335;28;20516;-61
2022/09/05 00:23:28;;;;;;;4.13;2.65;;;23.50;60.70;;;;;;5094864;28;20044;-61
2022/09/05 00:26:00;;;;;;;3.15;2.33;;;23.50;60.70;;;;;;5095358;28;20072;-62
2022/09/05 00:28:47;;;;;;;3.50;2.17;;;23.50;60.70;;;;;;5095149;28;20108;-61
2022/09/05 00:31:24;;;;;;;3.42;2.13;;;23.50;60.70;;;;;;5094496;28;20048;-61
2022/09/05 00:34:20;;;;;;;3.42;2.08;;;23.40;60.60;;;;;;5094960;28;20055;-61
2022/09/05 00:36:48;;;;;;;3.20;1.95;;;23.50;60.60;;;;;;5095652;28;20052;-61
2022/09/05 00:39:36;;;;;;;3.47;2.42;;;23.50;60.70;;;;;;5093454;28;20079;-61
2022/09/05 00:42:12;;;;;;;3.40;2.20;;;23.40;60.60;;;;;;5095605;28;20046;-61
2022/09/05 00:44:49;;;;;;;3.60;2.20;;;23.40;60.60;;;;;;5095374;28;20117;-62
2022/09/05 00:47:26;;;;;;;2.97;2.20;;;23.40;60.60;;;;;;5094223;28;20075;-62
2022/09/05 00:49:57;;;;;;;2.78;1.95;;;23.40;60.60;;;;;;5095511;28;20086;-62
2022/09/05 00:52:37;;;;;;;4.28;2.28;;;23.40;60.60;;;;;;5077128;28;20043;-61
2022/09/05 00:55:06;;;;;;;3.92;2.40;;;23.40;60.60;;;;;;5093654;28;20040;-62
2022/09/05 00:57:41;;;;;;;3.78;2.28;;;23.40;60.60;;;;;;5093435;28;20492;-61
2022/09/05 01:00:10;;;;;;;5.00;2.05;;;23.40;60.60;;;;;;5093435;28;20044;-61
2022/09/05 01:02:44;;;;;;;3.13;2.10;;;23.40;60.60;;;;;;5094860;28;20059;-62
2022/09/05 01:05:36;;;;;;;3.05;2.20;;;23.40;60.60;;;;;;5094008;28;20043;-61
2022/09/05 01:08:39;;;;;;;3.92;2.10;;;23.40;60.50;;;;;;5093043;28;20044;-62
2022/09/05 01:11:31;;;;;;;5.00;2.20;;;23.40;60.60;;;;;;5094935;28;20521;-61
2022/09/05 01:14:23;;;;;;;4.15;2.10;;;23.40;60.60;;;;;;5093133;28;20101;-61
2022/09/05 01:17:08;;;;;;;2.97;2.33;;;23.40;60.60;;;;;;5095031;28;20048;-61
2022/09/05 01:19:42;;;;;;;3.33;2.10;;;23.40;60.60;;;;;;5094770;28;20065;-62
2022/09/05 01:22:22;;;;;;;4.10;2.20;;;23.40;60.60;;;;;;5093948;28;20078;-61
2022/09/05 01:25:35;;;;;;;3.25;2.22;;;23.40;60.60;;;;;;5094579;28;20513;-62
2022/09/05 01:28:21;;;;;;;2.78;2.15;;;23.40;60.60;;;;;;5088166;28;20146;-62
2022/09/05 01:30:51;;;;;;;3.35;2.30;;;23.40;60.60;;;;;;5093713;28;20044;-61
2022/09/05 01:33:54;;;;;;;3.15;2.33;;;23.40;60.70;;;;;;5094409;28;20100;-62
2022/09/05 01:36:30;;;;;;;3.08;1.92;;;23.40;60.60;;;;;;5091879;28;20048;-61
2022/09/05 01:39:04;;;;;;;2.70;2.03;;;23.40;60.70;;;;;;5093559;28;20044;-61
2022/09/05 01:41:47;;;;;;;3.83;2.20;;;23.40;60.70;;;;;;5092798;28;20048;-61
2022/09/05 01:44:13;;;;;;;3.05;2.15;;;23.40;60.70;;;;;;5092769;28;20119;-61
2022/09/05 01:47:08;;;;;;;3.35;2.28;;;23.40;61.30;;;;;;5126978;27;20127;-61
2022/09/05 01:49:58;;;;;;;3.17;2.30;;;23.40;60.70;;;;;;5092360;28;20052;-61
2022/09/05 01:52:32;;;;;;;2.47;1.85;;;23.40;60.70;;;;;;5092864;28;20044;-61
2022/09/05 01:55:22;;;;;;;4.70;2.50;;;23.40;60.70;;;;;;5093083;28;20059;-61
2022/09/05 01:58:12;;;;;;;3.55;2.47;;;23.40;60.60;;;;;;5093075;28;20442;-61
2022/09/05 02:00:43;;;;;;;3.38;2.13;;;23.30;60.70;;;;;;5093535;28;20044;-61
2022/09/05 02:03:23;;;;;;;3.50;2.25;;;23.30;60.70;;;;;;5091804;28;20388;-61
2022/09/05 02:05:59;;;;;;;3.05;2.05;;;23.30;60.60;;;;;;5076287;28;20040;-61
2022/09/05 02:08:28;;;;;;;3.38;2.17;;;23.30;60.60;;;;;;5091904;28;20044;-61
2022/09/05 02:11:04;;;;;;;3.53;2.20;;;23.30;60.60;;;;;;5093365;28;20119;-61
2022/09/05 02:13:33;;;;;;;3.08;2.17;;;23.30;60.60;;;;;;5075366;28;20456;-62
2022/09/05 02:16:18;;;;;;;3.78;2.08;;;23.30;60.70;;;;;;5093878;28;20051;-61
2022/09/05 02:18:54;;;;;;;3.25;2.40;;;23.30;60.60;;;;;;5093021;28;20094;-62
2022/09/05 02:21:53;;;;;;;3.00;2.38;;;23.30;60.70;;;;;;5075233;28;20036;-62
2022/09/05 02:24:42;;;;;;;3.75;2.00;;;23.30;60.70;;;;;;5092810;28;20067;-61
2022/09/05 02:27:25;;;;;;;3.05;2.28;;;23.30;60.70;;;;;;5080797;28;20052;-61
2022/09/05 02:29:54;;;;;;;3.45;2.55;;;23.30;60.70;;;;;;5077518;28;20518;-62
2022/09/05 02:32:47;;;;;;;2.20;1.92;;;23.30;60.70;;;;;;5092568;28;20047;-61
2022/09/05 02:35:19;;;;;;;3.38;2.30;;;23.30;60.60;;;;;;5090837;28;20058;-61
2022/09/05 02:37:53;;;;;;;4.03;2.30;;;23.30;60.70;;;;;;5076280;28;20040;-61
2022/09/05 02:40:36;;;;;;;3.78;2.80;;;23.30;60.70;;;;;;5091491;28;20050;-61
2022/09/05 02:43:24;;;;;;;3.35;2.38;;;23.20;60.60;;;;;;5093440;28;20055;-62
2022/09/05 02:46:05;;;;;;;3.97;2.55;;;23.30;60.60;;;;;;5082556;28;20504;-61
2022/09/05 02:48:52;;;;;;;3.15;2.10;;;23.30;60.70;;;;;;5092868;28;20396;-61
2022/09/05 02:51:19;;;;;;;3.25;2.42;;;23.20;60.60;;;;;;5093087;28;20044;-61
2022/09/05 02:53:50;;;;;;;2.97;2.22;;;23.30;60.60;;;;;;5091328;28;20040;-61
2022/09/05 02:56:41;;;;;;;3.67;2.30;;;23.30;60.70;;;;;;5091509;28;20048;-61
2022/09/05 02:59:44;;;;;;;3.00;2.10;;;23.20;60.60;;;;;;5092807;28;20093;-61
2022/09/05 03:02:21;;;;;;;2.83;2.03;;;23.20;60.50;;;;;;5092018;28;20040;-61
2022/09/05 03:04:53;;;;;;;3.50;2.40;;;23.20;60.60;;;;;;5091953;28;20043;-61
2022/09/05 03:07:28;;;;;;;3.25;2.20;;;23.20;60.60;;;;;;5092013;28;20048;-61
2022/09/05 03:10:09;;;;;;;2.88;2.28;;;23.20;60.60;;;;;;5091612;28;20553;-62
2022/09/05 03:12:56;;;;;;;3.05;2.38;;;23.20;60.60;;;;;;5125168;27;20036;-61
2022/09/05 03:15:43;;;;;;;2.78;2.15;;;23.20;60.50;;;;;;5091731;28;20488;-61
2022/09/05 03:18:45;;;;;;;2.50;1.80;;;23.20;60.60;;;;;;5091862;28;20051;-62
2022/09/05 03:21:38;;;;;;;2.90;2.15;;;23.20;60.60;;;;;;5091892;28;20056;-61
2022/09/05 03:24:24;;;;;;;4.25;2.55;;;23.20;60.60;;;;;;5092885;28;20040;-61
2022/09/05 03:27:08;;;;;;;4.57;2.65;;;23.20;60.60;;;;;;5091705;28;20048;-61
2022/09/05 03:29:54;;;;;;;3.63;2.22;;;23.20;60.60;;;;;;5074850;28;20083;-61
2022/09/05 03:32:25;;;;;;;3.15;2.13;;;23.20;60.60;;;;;;5091552;28;20040;-61
2022/09/05 03:35:01;;;;;;;3.28;2.65;;;23.20;60.70;;;;;;5091880;28;20062;-61
2022/09/05 03:37:36;;;;;;;2.50;2.15;;;23.20;60.60;;;;;;5058536;28;20056;-61
2022/09/05 03:40:35;;;;;;;4.65;2.42;;;23.20;60.60;;;;;;5096571;28;20445;-61
2022/09/05 03:43:35;;;;;;;2.78;2.30;;;23.20;60.60;;;;;;5094758;28;20055;-61
2022/09/05 03:46:20;;;;;;;3.28;2.25;;;23.20;60.60;;;;;;5095663;28;20071;-61
2022/09/05 03:48:55;;;;;;;3.05;2.17;;;23.20;60.60;;;;;;5096005;28;20052;-61
2022/09/05 03:51:43;;;;;;;3.30;2.30;;;23.20;60.60;;;;;;5079269;28;20043;-61
2022/09/05 03:54:30;;;;;;;4.20;2.75;;;23.20;60.60;;;;;;5096419;28;20393;-61
2022/09/05 03:56:58;;;;;;;3.85;2.85;;;23.20;60.60;;;;;;5094572;28;20040;-62
2022/09/05 03:59:30;;;;;;;3.15;2.47;;;23.10;60.60;;;;;;5096071;28;20051;-61
2022/09/05 04:02:03;;;;;;;4.25;2.63;;;23.20;60.60;;;;;;5096029;28;20036;-61
2022/09/05 04:04:32;;;;;;;3.72;2.33;;;23.20;60.70;;;;;;5093876;28;20123;-61
2022/09/05 04:07:15;;;;;;;3.10;2.70;;;23.20;60.70;;;;;;5095521;28;20044;-60
2022/09/05 04:09:45;;;;;;;3.53;2.42;;;23.20;60.60;;;;;;5094397;28;20044;-60
2022/09/05 04:12:16;;;;;;;2.88;2.05;;;23.20;60.60;;;;;;5095115;28;20214;-60
2022/09/05 04:15:00;;;;;;;3.25;2.92;;;23.10;60.70;;;;;;5094749;28;20411;-61
2022/09/05 04:17:36;;;;;;;3.63;2.78;;;23.10;60.60;;;;;;5094902;28;20048;-61
2022/09/05 04:20:15;;;;;;;3.50;2.38;;;23.10;60.70;;;;;;5094970;28;20060;-60
2022/09/05 04:23:02;;;;;;;3.17;2.35;;;23.10;60.60;;;;;;5094779;28;20278;-60
2022/09/05 04:25:43;;;;;;;3.00;2.42;;;23.10;60.60;;;;;;5094862;28;20050;-60
2022/09/05 04:28:29;;;;;;;3.45;2.70;;;23.10;60.70;;;;;;5095844;28;20581;-60
2022/09/05 04:30:58;;;;;;;3.63;2.50;;;23.10;61.20;;;;;;5095134;28;20047;-60
2022/09/05 04:33:28;;;;;;;4.15;2.85;;;23.10;60.60;;;;;;5094458;28;20048;-60
2022/09/05 04:36:05;;;;;;;4.85;2.85;;;23.10;60.60;;;;;;5094344;28;20105;-61
2022/09/05 04:38:36;;;;;;;3.45;2.60;;;23.10;60.60;;;;;;5094422;28;20044;-60
2022/09/05 04:41:02;;;;;;;3.80;2.72;;;23.10;60.70;;;;;;5095750;28;20088;-60
2022/09/05 04:43:47;;;;;;;2.97;2.25;;;23.10;60.70;;;;;;5128229;27;20047;-60
2022/09/05 04:46:43;;;;;;;3.00;2.40;;;23.10;60.70;;;;;;5093635;28;20040;-60
2022/09/05 04:49:12;;;;;;;3.85;2.70;;;23.10;60.60;;;;;;5092073;28;20055;-60
2022/09/05 04:51:42;;;;;;;3.45;2.55;;;23.10;60.70;;;;;;5093707;28;20040;-60
2022/09/05 04:54:17;;;;;;;3.20;2.45;;;23.10;60.70;;;;;;5093667;28;20040;-60
2022/09/05 04:56:45;;;;;;;3.92;3.00;;;23.10;60.70;;;;;;5095517;28;20043;-60
2022/09/05 04:59:15;;;;;;;3.03;2.03;;;23.00;60.60;;;;;;5093045;28;20101;-60
2022/09/05 05:01:50;;;;;;;4.28;2.83;;;23.10;60.70;;;;;;5093711;28;20093;-60
2022/09/05 05:04:18;;;;;;;3.47;2.60;;;23.10;60.70;;;;;;5095054;28;20040;-60
2022/09/05 05:06:45;;;;;;;;;;;23.10;60.70;;;;;;5094142;28;20398;-62
2022/09/05 05:09:27;;;;;;;3.25;2.42;;;23.00;60.60;;;;;;5093531;28;20287;-61
2022/09/05 05:12:02;;;;;;;3.70;2.83;;;23.00;60.70;;;;;;5094001;28;20050;-61
2022/09/05 05:14:51;;;;;;;3.45;2.50;;;23.00;60.60;;;;;;5075890;28;20483;-61
2022/09/05 05:17:28;;;;;;;4.20;2.58;;;23.00;60.60;;;;;;5060733;28;20135;-61
2022/09/05 05:20:18;;;;;;;4.35;3.08;;;23.00;60.60;;;;;;5093817;28;20495;-61
2022/09/05 05:23:09;;;;;;;6.85;2.60;;;23.10;60.70;;;;;;5054996;28;20131;-62
2022/09/05 05:25:49;;;;;;;3.58;2.78;;;23.10;60.70;;;;;;5092828;28;20059;-61
2022/09/05 05:28:23;;;;;;;4.38;3.00;;;23.10;60.60;;;;;;5092245;28;20052;-62
2022/09/05 05:30:48;;;;;;;5.05;3.10;;;23.10;60.70;;;;;;5060686;28;20503;-61
2022/09/05 05:33:28;;;;;;;4.60;2.92;;;23.10;60.70;;;;;;5093288;28;20044;-61
2022/09/05 05:35:55;;;;;;;4.45;3.05;;;23.10;61.00;;;;;;5092346;28;20109;-61
2022/09/05 05:38:33;;;;;;;4.43;3.47;;;23.10;61.00;;;;;;5094105;28;20425;-61
2022/09/05 05:41:20;;;;;;;5.53;3.55;;;23.10;61.00;;;;;;5094600;28;20127;-61
2022/09/05 05:43:46;;;;;;;4.88;3.15;;;23.10;61.20;;;;;;5094349;28;20052;-61
2022/09/05 05:46:14;;;;;;;5.28;3.08;;;23.10;61.20;;;;;;5094329;28;20063;-61
2022/09/05 05:48:40;;;;;;;4.30;3.33;;;23.20;61.20;;;;;;5074514;28;20055;-61
2022/09/05 05:51:34;;;;;;;8.73;3.70;;;23.10;61.10;;;;;;5094045;28;20040;-62
2022/09/05 05:54:31;;;;;;;5.95;3.10;;;23.20;61.10;;;;;;5093064;28;20161;-62
2022/09/05 05:57:35;;;;;;;7.03;3.27;;;23.10;61.00;;;;;;5093395;28;20052;-60
2022/09/05 06:00:18;;;;;;;8.48;3.75;;;23.10;61.10;;;;;;5081338;28;20328;-61
2022/09/05 06:03:23;;;;;;;6.47;3.20;;;23.10;61.20;;;;;;5092015;28;20052;-61
2022/09/05 06:06:02;;;;;;;5.88;3.55;;;23.20;61.30;;;;;;5083826;28;20055;-60
2022/09/05 06:08:46;;;;;;;5.05;2.80;;;23.20;61.30;;;;;;5092299;28;20460;-61
2022/09/05 06:11:43;;;;;;;5.85;3.80;;;23.20;61.30;;;;;;5093021;28;20403;-61
2022/09/05 06:14:37;;;;;;;5.45;3.10;;;23.20;61.30;;;;;;5092225;28;20039;-61
2022/09/05 06:17:18;;;;;;;5.78;2.97;;;23.20;61.40;;;;;;5091943;28;20046;-61
2022/09/05 06:20:15;;;;;;;7.28;3.33;;;23.20;61.50;;;;;;5092629;28;20044;-61
2022/09/05 06:23:00;;;;;;;;;;;23.20;61.50;;;;;;5083315;28;20066;-61
2022/09/05 06:25:52;;;;;;;4.97;3.22;;;23.20;61.40;;;;;;5092327;28;20317;-61
2022/09/05 06:28:46;;;;;;;6.57;3.70;;;23.20;61.50;;;;;;5093247;28;20044;-62
2022/09/05 06:31:12;;;;;;;6.18;3.63;;;23.20;61.50;;;;;;5092957;28;20040;-61
2022/09/05 06:34:10;;;;;;;5.32;3.45;;;23.20;61.40;;;;;;5093325;28;20415;-62
2022/09/05 06:36:36;;;;;;;;;;;23.20;61.40;;;;;;5076072;28;20138;-61
2022/09/05 06:39:12;;;;;;;6.47;3.30;;;23.20;61.30;;;;;;5092585;28;20057;-61
2022/09/05 06:42:08;;;;;;;6.07;3.20;;;23.20;61.40;;;;;;5091657;28;20407;-61
2022/09/05 06:44:52;;;;;;;6.45;3.40;;;23.20;61.50;;;;;;5077359;28;20040;-60
2022/09/05 06:47:18;;;;;;;5.15;3.17;;;23.20;61.40;;;;;;5074292;28;20115;-61
2022/09/05 06:49:53;;;;;;;6.13;3.42;;;23.20;61.50;;;;;;5091406;28;20128;-61
2022/09/05 06:52:25;;;;;;;6.28;3.65;;;23.20;61.50;;;;;;5089315;28;20065;-61
2022/09/05 06:54:54;;;;;;;6.00;3.63;;;23.20;61.40;;;;;;5091789;28;20052;-61
2022/09/05 06:57:29;;;;;;;5.80;3.42;;;23.20;61.40;;;;;;5091347;28;20100;-60
2022/09/05 07:00:22;;;;;;;6.97;3.83;;;23.20;61.30;;;;;;5092217;28;20044;-61
2022/09/05 07:03:25;;;;;;;4.97;3.80;;;23.20;61.20;;;;;;5092122;28;20052;-61
2022/09/05 07:06:28;;;;;;;5.13;4.07;;;23.20;61.10;;;;;;5092287;28;20044;-61
2022/09/05 07:09:03;;;;;;;7.85;4.15;;;23.20;61.00;;;;;;5089429;28;20088;-62
2022/09/05 07:11:39;;;;;;;8.10;4.75;;;23.20;61.00;;;;;;5091523;28;20391;-61
2022/09/05 07:14:11;;;;;;;6.55;4.20;;;23.20;60.90;;;;;;5090892;28;20040;-61
2022/09/05 07:16:40;;;;;;;7.22;5.05;;;23.20;60.80;;;;;;5092474;28;20082;-64
2022/09/05 07:19:24;;;;;;;5.95;4.43;;;23.20;60.80;;;;;;5093111;28;20066;-62
2022/09/05 07:22:12;;;;;;;7.60;4.50;;;23.30;60.70;;;;;;5090606;28;20403;-60
2022/09/05 07:24:40;;;;;;;6.10;4.63;;;23.30;60.50;;;;;;5091258;28;20044;-63
2022/09/05 07:27:06;;;;;;;6.78;4.25;;;23.20;60.60;;;;;;5091670;28;20075;-65
2022/09/05 07:29:33;;;;;;;6.85;4.32;;;23.20;60.50;;;;;;5074054;28;20082;-67
2022/09/05 07:32:00;;;;;;;10.23;4.88;;;23.30;60.50;;;;;;5091220;28;20071;-62
2022/09/05 07:34:30;;;;;;;5.72;4.63;;;23.30;60.50;;;;;;5087507;28;20392;-64
2022/09/05 07:37:17;;;;;;;8.50;4.70;;;23.30;60.40;;;;;;5057446;28;20048;-62
2022/09/05 07:39:59;;;;;;;8.80;4.97;;;23.30;60.40;;;;;;5090320;28;20044;-62
2022/09/05 07:42:31;;;;;;;5.88;5.07;;;23.30;60.50;;;;;;5089196;28;20036;-62
2022/09/05 07:45:00;;;;;;;9.10;5.25;;;23.30;60.50;;;;;;5090239;28;20048;-61
2022/09/05 07:47:38;;;;;;;9.93;4.80;;;23.30;60.40;;;;;;5072257;28;20132;-61
2022/09/05 07:50:08;;;;;;;9.32;5.00;;;23.40;60.50;;;;;;5090398;28;20036;-62
2022/09/05 07:52:37;;;;;;;6.63;4.70;;;23.40;60.60;;;;;;5089338;28;20071;-62
2022/09/05 07:55:20;;;;;;;8.63;4.55;;;23.40;60.70;;;;;;5087548;28;20028;-62
2022/09/05 07:57:46;;;;;;;9.35;5.15;;;23.40;60.70;;;;;;5088580;28;20487;-62
2022/09/05 08:00:19;;;;;;;5.50;4.50;;;23.40;60.70;;;;;;5090669;28;20040;-62
2022/09/05 08:02:45;;;;;;;7.90;4.75;;;23.40;60.70;;;;;;5088083;28;20052;-61
2022/09/05 08:05:13;;;;;;;6.55;5.00;;;23.40;60.80;;;;;;5091279;28;20036;-65
2022/09/05 08:07:39;;;;;;;;;;;23.40;60.80;;;;;;5074523;28;20048;-62
2022/09/05 08:10:13;;;;;;;9.90;4.80;;;23.40;60.80;;;;;;5090110;28;19928;-62
2022/09/05 08:13:03;;;;;;;10.93;4.55;;;23.50;60.90;;;;;;5092291;28;20139;-62
2022/09/05 08:15:29;;;;;;;8.02;5.13;;;23.50;61.10;;;;;;5092049;28;20040;-62
2022/09/05 08:18:14;;;;;;;13.10;4.57;;;23.50;61.20;;;;;;5091508;28;20047;-62
2022/09/05 08:20:50;;;;;;;7.22;4.55;;;23.50;61.40;;;;;;5092111;28;20123;-62
2022/09/05 08:23:37;;;;;;;7.20;4.65;;;23.60;61.70;;;;;;5089856;28;20044;-64
2022/09/05 08:26:22;;;;;;;7.68;4.68;;;23.60;61.80;;;;;;5095677;28;20044;-64
2022/09/05 08:29:09;;;;;;;9.35;4.70;;;23.60;62.00;;;;;;5094497;28;20075;-67
2022/09/05 08:31:51;;;;;;;14.77;5.53;;;23.50;61.80;;;;;;5093330;28;20040;-65
2022/09/05 08:34:44;;;;;;;10.88;5.20;;;23.60;61.80;;;;;;5091942;28;20471;-64
2022/09/05 08:37:11;;;;;;;8.35;5.13;;;23.60;61.80;;;;;;5076207;28;20471;-64
2022/09/05 08:39:36;;;;;;;12.60;4.97;;;23.60;61.70;;;;;;5094301;28;20043;-64
2022/09/05 08:42:13;;;;;;;10.63;5.38;;;23.60;61.60;;;;;;5094043;28;20048;-64
2022/09/05 08:44:48;;;;;;;11.60;4.72;;;23.60;61.60;;;;;;5093425;28;20484;-65
2022/09/05 08:47:25;;;;;;;7.15;4.95;;;23.60;61.60;;;;;;5094819;28;20040;-64
2022/09/05 08:50:15;;;;;;;8.48;5.10;;;23.60;61.60;;;;;;5077333;28;20056;-64
2022/09/05 08:52:55;;;;;;;8.52;4.70;;;23.60;61.50;;;;;;5094507;28;20558;-64
2022/09/05 08:55:26;;;;;;;8.43;4.95;;;23.60;61.50;;;;;;5095205;28;20187;-64
2022/09/05 08:58:18;;;;;;;10.35;5.38;;;23.60;61.50;;;;;;5095334;28;20070;-64
2022/09/05 09:00:50;;;;;;;12.52;5.07;;;23.60;61.50;;;;;;5094313;28;20036;-64
2022/09/05 09:03:27;;;;;;;7.30;4.90;;;23.60;61.50;;;;;;5094008;28;20040;-64
2022/09/05 09:06:15;;;;;;;8.73;5.32;;;23.60;61.50;;;;;;5094552;28;20044;-64
2022/09/05 09:09:00;;;;;;;9.77;4.60;;;23.60;61.50;;;;;;5078051;28;20040;-64
2022/09/05 09:11:33;;;;;;;11.10;4.95;;;23.60;61.50;;;;;;5078181;28;20040;-64
2022/09/05 09:14:22;;;;;;;8.88;4.93;;;23.60;61.50;;;;;;5094246;28;20082;-64
2022/09/05 09:17:06;;;;;;;9.15;5.07;;;23.60;61.40;;;;;;5095207;28;20562;-64
2022/09/05 09:19:44;;;;;;;7.85;4.57;;;23.60;61.40;;;;;;5075641;28;20062;-64
2022/09/05 09:22:48;;;;;;;8.65;4.93;;;23.60;61.40;;;;;;5094828;28;20058;-64
2022/09/05 09:25:16;;;;;;;7.75;4.88;;;23.60;61.40;;;;;;5094751;28;20043;-64
2022/09/05 09:28:06;;;;;;;5.70;5.00;;;23.60;61.40;;;;;;5076085;28;20083;-64
2022/09/05 09:30:32;;;;;;;7.57;4.80;;;23.60;61.40;;;;;;5094437;28;20050;-64
2022/09/05 09:33:02;;;;;;;9.18;5.38;;;23.60;61.40;;;;;;5094284;28;20036;-64
2022/09/05 09:35:33;;;;;;;8.45;5.22;;;23.70;61.40;;;;;;5092275;28;20072;-63
2022/09/05 09:38:08;;;;;;;11.05;5.40;;;23.70;61.40;;;;;;5093212;28;20052;-63
2022/09/05 09:40:56;;;;;;;8.15;5.15;;;23.70;61.80;;;;;;5091390;28;20097;-63
2022/09/05 09:43:28;;;;;;;7.35;5.40;;;23.60;62.20;;;;;;5094201;28;20043;-64
2022/09/05 09:46:17;;;;;;;12.38;5.30;;;23.60;62.50;;;;;;5076940;28;20059;-63
2022/09/05 09:48:48;;;;;;;10.35;5.25;;;23.70;62.80;;;;;;5091924;28;20414;-63
2022/09/05 09:51:29;;;;;;;10.57;6.15;;;23.70;62.80;;;;;;5093586;28;20414;-64
2022/09/05 09:54:19;;;;;;;13.75;4.97;;;23.70;62.90;;;;;;5094453;28;20036;-64
2022/09/05 09:57:04;;;;;;;7.03;5.00;;;23.70;63.10;;;;;;5090892;28;20055;-63
2022/09/05 09:59:39;;;;;;;7.03;5.30;;;23.70;62.90;;;;;;5091906;28;20047;-63
2022/09/05 10:02:14;;;;;;;7.97;5.03;;;23.70;63.00;;;;;;5092946;28;20036;-63
2022/09/05 10:04:48;;;;;;;7.35;5.63;;;23.70;63.00;;;;;;5093885;28;20040;-63
2022/09/05 10:07:18;;;;;;;10.27;5.28;;;23.70;63.00;;;;;;5093122;28;20089;-64
2022/09/05 10:10:01;;;;;;;10.65;4.70;;;23.70;63.00;;;;;;5091156;28;20075;-64
2022/09/05 10:12:44;;;;;;;8.80;5.13;;;23.70;62.90;;;;;;5093349;28;20028;-63
2022/09/05 10:15:27;;;;;;;9.40;5.43;;;23.70;62.90;;;;;;5091810;28;20462;-62
2022/09/05 10:17:53;;;;;;;8.18;5.22;;;23.70;62.90;;;;;;5089954;28;20048;-63
2022/09/05 10:20:40;;;;;;;10.02;4.72;;;23.70;62.90;;;;;;5093274;28;20051;-63
2022/09/05 10:23:21;;;;;;;6.32;4.75;;;23.70;62.70;;;;;;5078058;28;20076;-63
2022/09/05 10:26:14;;;;;;;7.50;5.03;;;23.80;62.70;;;;;;5091970;28;20040;-63
2022/09/05 10:28:54;;;;;;;7.43;4.60;;;23.80;62.60;;;;;;5052116;28;20056;-64
2022/09/05 10:31:44;;;;;;;7.43;5.00;;;23.80;62.50;;;;;;5070207;28;20523;-64
2022/09/05 10:34:22;;;;;;;5.93;4.75;;;23.80;62.40;;;;;;5057193;28;20106;-63
2022/09/05 10:37:09;;;;;;;5.75;4.95;;;23.80;62.40;;;;;;5072168;28;20143;-64
2022/09/05 10:39:37;;;;;;;11.43;5.25;;;23.80;62.40;;;;;;5071713;28;20472;-63
2022/09/05 10:42:14;;;;;;;7.35;5.60;;;23.80;62.40;;;;;;5055960;28;20110;-61
2022/09/05 10:44:51;;;;;;;9.27;5.93;;;23.80;62.30;;;;;;5090847;28;20048;-64
2022/09/05 10:47:29;;;;;;;9.27;5.97;;;23.80;62.30;;;;;;5090891;28;20571;-63
2022/09/05 10:50:03;;;;;;;10.18;5.03;;;23.80;62.30;;;;;;5093221;28;20092;-63
2022/09/05 10:52:49;;;;;;;9.23;5.20;;;23.80;62.00;;;;;;5090747;28;20149;-64
2022/09/05 10:55:25;;;;;;;11.70;5.60;;;23.80;62.10;;;;;;5091786;28;20047;-64
2022/09/05 10:58:15;;;;;;;9.32;5.72;;;23.80;62.00;;;;;;5091200;28;20100;-64
2022/09/05 11:01:36;;;;;;;10.93;6.18;;;23.80;61.90;;;;;;5092020;28;20055;-64
2022/09/05 11:04:06;;;;;;;9.77;5.25;;;23.80;61.80;;;;;;5030572;28;20124;-64
2022/09/05 11:06:44;;;;;;;10.75;6.07;;;23.80;61.80;;;;;;5087271;28;20076;-64
2022/09/05 11:09:24;;;;;;;11.60;5.40;;;23.80;61.80;;;;;;5092687;28;20090;-64
2022/09/05 11:12:15;;;;;;;11.95;5.72;;;23.80;61.80;;;;;;5091985;28;20075;-64
2022/09/05 11:15:02;;;;;;;7.78;5.57;;;23.80;61.70;;;;;;5085490;28;20058;-64
2022/09/05 11:17:46;;;;;;;11.30;5.93;;;23.80;61.70;;;;;;5091427;28;20390;-64
2022/09/05 11:20:28;;;;;;;8.27;5.38;;;23.80;61.70;;;;;;5074970;28;20055;-64
2022/09/05 11:22:59;;;;;;;9.23;5.07;;;23.80;61.60;;;;;;5091605;28;20048;-64
2022/09/05 11:25:26;;;;;;;6.80;5.20;;;23.80;61.60;;;;;;5075036;28;20040;-64
2022/09/05 11:27:52;;;;;;;7.10;4.65;;;23.80;61.60;;;;;;5073752;28;20514;-64
2022/09/05 11:30:21;;;;;;;8.52;5.28;;;23.80;61.60;;;;;;5091198;28;20055;-65
2022/09/05 11:33:15;;;;;;;8.43;5.22;;;23.80;61.60;;;;;;5090730;28;20032;-64
2022/09/05 11:35:46;;;;;;;7.72;4.97;;;23.80;61.60;;;;;;5091181;28;20056;-64
2022/09/05 11:38:22;;;;;;;8.50;5.15;;;23.80;61.60;;;;;;5074120;28;20123;-64
2022/09/05 11:41:16;;;;;;;8.07;5.20;;;23.90;61.60;;;;;;5090747;28;20090;-64
2022/09/05 11:44:09;;;;;;;6.53;4.78;;;23.90;61.50;;;;;;5091332;28;20058;-64
2022/09/05 11:46:40;;;;;;;6.13;4.72;;;23.80;61.50;;;;;;5091017;28;20497;-64
2022/09/05 11:49:06;;;;;;;6.93;4.65;;;23.90;61.40;;;;;;5091536;28;20102;-64
2022/09/05 11:51:57;;;;;;;7.13;4.57;;;23.90;61.90;;;;;;5090818;28;20475;-64
2022/09/05 11:54:47;;;;;;;7.30;5.28;;;23.90;61.20;;;;;;5091497;28;20044;-64
2022/09/05 11:57:33;;;;;;;7.72;4.57;;;23.90;61.20;;;;;;5091161;28;20040;-63
2022/09/05 12:00:08;;;;;;;7.05;4.95;;;23.90;61.20;;;;;;5094754;28;20098;-63
2022/09/05 12:02:59;;;;;;;6.80;5.18;;;23.90;61.10;;;;;;5094279;28;20055;-63
2022/09/05 12:05:51;;;;;;;6.82;4.85;;;23.90;61.00;;;;;;5093406;28;20055;-64
2022/09/05 12:08:47;;;;;;;7.88;5.00;;;23.90;61.00;;;;;;5094000;28;20040;-64
2022/09/05 12:11:22;;;;;;;6.38;4.60;;;23.90;60.90;;;;;;5094946;28;20052;-63
2022/09/05 12:14:23;;;;;;;7.63;5.10;;;23.90;60.60;;;;;;5095879;28;20047;-63
2022/09/05 12:17:13;;;;;;;5.38;4.15;;;24.00;60.10;;;;;;5095440;28;20051;-63
2022/09/05 12:19:53;;;;;;;5.07;4.15;;;24.00;59.80;;;;;;5080140;28;20494;-63
2022/09/05 12:22:29;;;;;;;5.72;3.90;;;24.00;59.60;;;;;;5093676;28;20069;-64
2022/09/05 12:25:09;;;;;;;6.28;3.65;;;24.10;59.40;;;;;;5094539;28;20040;-63
2022/09/05 12:27:38;;;;;;;6.10;4.20;;;24.10;59.20;;;;;;5093781;28;20072;-63
2022/09/05 12:30:05;;;;;;;6.07;3.90;;;24.10;59.40;;;;;;5093018;28;20399;-63
2022/09/05 12:32:32;;;;;;;5.73;3.97;;;24.10;59.80;;;;;;5077449;28;20040;-63
2022/09/05 12:34:59;;;;;;;7.80;4.17;;;24.10;60.00;;;;;;5094345;28;20060;-63
2022/09/05 12:37:30;;;;;;;8.20;4.60;;;24.10;60.10;;;;;;5093419;28;20044;-63
2022/09/05 12:40:13;;;;;;;5.68;4.30;;;24.10;60.10;;;;;;5095753;28;20032;-63
2022/09/05 12:42:55;;;;;;;5.72;4.05;;;24.10;60.30;;;;;;5095695;28;20123;-63
2022/09/05 12:45:38;;;;;;;4.90;3.88;;;24.10;60.20;;;;;;5075568;28;20044;-63
2022/09/05 12:48:13;;;;;;;5.13;4.15;;;24.20;60.20;;;;;;5094459;28;20490;-63
2022/09/05 12:50:50;;;;;;;6.68;4.18;;;24.20;60.10;;;;;;5091707;28;20048;-63
2022/09/05 12:53:17;;;;;;;6.60;4.15;;;24.20;60.20;;;;;;5090711;28;20040;-63
2022/09/05 12:56:02;;;;;;;5.50;3.90;;;24.20;60.20;;;;;;5093384;28;20055;-63
2022/09/05 12:58:29;;;;;;;5.07;4.13;;;24.20;60.30;;;;;;5091900;28;20052;-64
2022/09/05 13:01:15;;;;;;;5.28;3.63;;;24.20;60.20;;;;;;5076065;28;20612;-63
2022/09/05 13:04:02;;;;;;;5.38;4.10;;;24.20;60.20;;;;;;5081611;28;20119;-69
2022/09/05 13:06:37;;;;;;;7.83;3.97;;;24.20;60.10;;;;;;5091372;28;20082;-65
2022/09/05 13:09:22;;;;;;;6.25;4.00;;;24.20;60.10;;;;;;5093837;28;20040;-65
2022/09/05 13:12:26;;;;;;;7.10;4.07;;;24.20;60.20;;;;;;5092917;28;20105;-64
2022/09/05 13:15:04;;;;;;;5.72;3.97;;;24.20;60.20;;;;;;5081068;28;20102;-64
2022/09/05 13:17:47;;;;;;;4.38;3.50;;;24.20;60.30;;;;;;5093221;28;20122;-64
2022/09/05 13:20:17;;;;;;;6.45;3.85;;;24.20;60.20;;;;;;5093958;28;20449;-64
2022/09/05 13:22:45;;;;;;;5.53;3.45;;;24.20;60.40;;;;;;5077098;28;20059;-65
2022/09/05 13:25:23;;;;;;;4.70;3.63;;;24.10;60.40;;;;;;5077146;28;20047;-64
2022/09/05 13:27:55;;;;;;;4.85;3.38;;;24.10;60.40;;;;;;5093283;28;20511;-64
2022/09/05 13:30:23;;;;;;;4.65;3.42;;;24.10;60.40;;;;;;5093297;28;20050;-65
2022/09/05 13:32:48;;;;;;;4.32;3.30;;;24.10;60.50;;;;;;5075928;28;20036;-65
2022/09/05 13:35:21;;;;;;;4.47;3.67;;;24.10;60.50;;;;;;5092826;28;20098;-64
2022/09/05 13:38:19;;;;;;;4.20;3.80;;;24.10;60.60;;;;;;5092172;28;20498;-65
2022/09/05 13:40:45;;;;;;;;;;;24.10;60.80;;;;;;5091903;28;20044;-64
2022/09/05 13:43:13;;;;;;;5.18;3.17;;;24.00;60.50;;;;;;5091945;28;19973;-63
2022/09/05 13:46:15;;;;;;;5.93;3.72;;;24.10;60.70;;;;;;5092884;28;20043;-64
2022/09/05 13:48:48;;;;;;;8.50;3.97;;;24.10;60.80;;;;;;5092035;28;20044;-64
2022/09/05 13:51:37;;;;;;;4.90;3.35;;;24.10;60.80;;;;;;5109506;28;20044;-64
2022/09/05 13:54:37;;;;;;;5.60;3.80;;;24.10;60.80;;;;;;5092749;28;20076;-64